sensor_id;sensor_type;location;lat;lon;timestamp;pressure;altitude;pressure_sealevel;temperature;humidity
17362;BME280;8798;51.938;4.348;2023-08-21T00:01:41;101604.00;;;20.88;60.44
17362;BME280;8798;51.938;4.348;2023-08-21T00:04:10;101624.78;;;20.89;60.63
17362;BME280;8798;51.938;4.348;2023-08-21T00:06:38;101642.66;;;20.91;60.67
17362;BME280;8798;51.938;4.348;2023-08-21T00:09:06;101644.56;;;20.91;60.69
17362;BME280;8798;51.938;4.348;2023-08-21T00:11:34;101655.69;;;20.89;60.91
17362;BME280;8798;51.938;4.348;2023-08-21T00:14:03;101667.66;;;20.88;61.07
17362;BME280;8798;51.938;4.348;2023-08-21T00:16:31;101687.44;;;20.90;61.13
17362;BME280;8798;51.938;4.348;2023-08-21T00:18:59;101705.31;;;20.93;61.34
17362;BME280;8798;51.938;4.348;2023-08-21T00:21:28;101730.34;;;20.96;61.28
17362;BME280;8798;51.938;4.348;2023-08-21T00:23:56;101737.69;;;20.96;61.33
17362;BME280;8798;51.938;4.348;2023-08-21T00:26:24;101742.31;;;20.95;61.42
17362;BME280;8798;51.938;4.348;2023-08-21T00:28:52;101763.13;;;20.96;61.51
17362;BME280;8798;51.938;4.348;2023-08-21T00:31:20;101768.59;;;20.96;61.66
17362;BME280;8798;51.938;4.348;2023-08-21T00:33:47;101791.09;;;20.98;61.62
17362;BME280;8798;51.938;4.348;2023-08-21T00:36:15;101800.13;;;20.99;61.75
17362;BME280;8798;51.938;4.348;2023-08-21T00:38:45;101807.50;;;20.98;61.86
17362;BME280;8798;51.938;4.348;2023-08-21T00:41:14;101808.53;;;20.97;62.05
17362;BME280;8798;51.938;4.348;2023-08-21T00:43:42;101818.63;;;20.97;62.09
17362;BME280;8798;51.938;4.348;2023-08-21T00:46:10;101817.97;;;20.95;62.44
17362;BME280;8798;51.938;4.348;2023-08-21T00:48:38;101822.56;;;20.94;62.28
17362;BME280;8798;51.938;4.348;2023-08-21T00:51:06;101835.22;;;20.95;62.39
17362;BME280;8798;51.938;4.348;2023-08-21T00:53:35;101857.50;;;20.99;62.47
17362;BME280;8798;51.938;4.348;2023-08-21T00:56:04;101883.41;;;21.03;62.67
17362;BME280;8798;51.938;4.348;2023-08-21T00:58:32;101898.75;;;21.04;63.00
17362;BME280;8798;51.938;4.348;2023-08-21T01:01:00;101912.22;;;21.05;62.91
17362;BME280;8798;51.938;4.348;2023-08-21T01:03:29;101919.38;;;21.07;62.87
17362;BME280;8798;51.938;4.348;2023-08-21T01:05:57;101929.28;;;21.08;63.01
17362;BME280;8798;51.938;4.348;2023-08-21T01:08:29;101928.44;;;21.07;63.26
17362;BME280;8798;51.938;4.348;2023-08-21T01:11:05;101933.03;;;21.07;62.96
17362;BME280;8798;51.938;4.348;2023-08-21T01:13:46;101921.66;;;21.03;63.01
17362;BME280;8798;51.938;4.348;2023-08-21T01:16:16;101925.44;;;21.02;63.19
17362;BME280;8798;51.938;4.348;2023-08-21T01:18:45;101933.66;;;21.02;63.31
17362;BME280;8798;51.938;4.348;2023-08-21T01:21:15;101930.25;;;21.00;63.49
17362;BME280;8798;51.938;4.348;2023-08-21T01:23:45;101918.84;;;20.96;63.63
17362;BME280;8798;51.938;4.348;2023-08-21T01:26:13;101908.31;;;20.93;63.76
17362;BME280;8798;51.938;4.348;2023-08-21T01:28:41;101915.84;;;20.91;63.62
17362;BME280;8798;51.938;4.348;2023-08-21T01:31:13;101913.53;;;20.88;63.70
17362;BME280;8798;51.938;4.348;2023-08-21T01:33:45;101922.56;;;20.89;63.98
17362;BME280;8798;51.938;4.348;2023-08-21T01:36:15;101941.94;;;20.94;64.03
17362;BME280;8798;51.938;4.348;2023-08-21T01:38:45;101967.66;;;20.99;64.16
17362;BME280;8798;51.938;4.348;2023-08-21T01:41:13;101977.56;;;21.00;63.84
17362;BME280;8798;51.938;4.348;2023-08-21T01:43:41;101973.50;;;20.96;63.91
17362;BME280;8798;51.938;4.348;2023-08-21T01:46:10;101953.94;;;20.93;64.30
17362;BME280;8798;51.938;4.348;2023-08-21T01:48:38;101933.88;;;20.86;64.34
17362;BME280;8798;51.938;4.348;2023-08-21T01:51:06;101930.66;;;20.82;64.47
17362;BME280;8798;51.938;4.348;2023-08-21T01:53:34;101912.16;;;20.77;64.44
17362;BME280;8798;51.938;4.348;2023-08-21T01:56:03;101893.78;;;20.71;64.40
17362;BME280;8798;51.938;4.348;2023-08-21T01:58:31;101890.63;;;20.68;64.69
17362;BME280;8798;51.938;4.348;2023-08-21T02:00:59;101880.06;;;20.65;64.62
17362;BME280;8798;51.938;4.348;2023-08-21T02:03:27;101862.56;;;20.59;64.78
17362;BME280;8798;51.938;4.348;2023-08-21T02:05:57;101840.59;;;20.52;64.78
17362;BME280;8798;51.938;4.348;2023-08-21T02:08:30;101831.13;;;20.48;64.93
17362;BME280;8798;51.938;4.348;2023-08-21T02:10:58;101828.78;;;20.45;65.05
17362;BME280;8798;51.938;4.348;2023-08-21T02:13:28;101820.13;;;20.41;64.98
17362;BME280;8798;51.938;4.348;2023-08-21T02:15:56;101809.78;;;20.37;65.34
17362;BME280;8798;51.938;4.348;2023-08-21T02:18:24;101811.00;;;20.34;65.07
17362;BME280;8798;51.938;4.348;2023-08-21T02:20:52;101800.50;;;20.31;65.28
17362;BME280;8798;51.938;4.348;2023-08-21T02:23:20;101803.41;;;20.30;65.49
17362;BME280;8798;51.938;4.348;2023-08-21T02:25:48;101805.28;;;20.29;65.47
17362;BME280;8798;51.938;4.348;2023-08-21T02:28:16;101803.13;;;20.25;65.42
17362;BME280;8798;51.938;4.348;2023-08-21T02:30:45;101797.03;;;20.23;65.53
17362;BME280;8798;51.938;4.348;2023-08-21T02:33:13;101792.78;;;20.20;65.54
17362;BME280;8798;51.938;4.348;2023-08-21T02:35:41;101787.72;;;20.17;65.73
17362;BME280;8798;51.938;4.348;2023-08-21T02:38:09;101793.41;;;20.15;65.78
17362;BME280;8798;51.938;4.348;2023-08-21T02:40:37;101787.28;;;20.13;66.01
17362;BME280;8798;51.938;4.348;2023-08-21T02:43:05;101801.94;;;20.12;65.79
17362;BME280;8798;51.938;4.348;2023-08-21T02:45:33;101786.81;;;20.10;65.87
17362;BME280;8798;51.938;4.348;2023-08-21T02:48:02;101785.31;;;20.07;65.78
17362;BME280;8798;51.938;4.348;2023-08-21T02:50:31;101785.50;;;20.06;65.98
17362;BME280;8798;51.938;4.348;2023-08-21T02:52:59;101794.72;;;20.05;66.07
17362;BME280;8798;51.938;4.348;2023-08-21T02:55:27;101790.50;;;20.02;66.11
17362;BME280;8798;51.938;4.348;2023-08-21T02:57:54;101792.75;;;19.98;66.18
17362;BME280;8798;51.938;4.348;2023-08-21T03:00:22;101784.97;;;19.95;66.36
17362;BME280;8798;51.938;4.348;2023-08-21T03:02:50;101786.00;;;19.94;66.34
17362;BME280;8798;51.938;4.348;2023-08-21T03:05:20;101780.72;;;19.93;66.21
17362;BME280;8798;51.938;4.348;2023-08-21T03:07:48;101781.09;;;19.90;66.51
17362;BME280;8798;51.938;4.348;2023-08-21T03:10:16;101785.88;;;19.88;66.46
17362;BME280;8798;51.938;4.348;2023-08-21T03:12:44;101785.25;;;19.86;66.45
17362;BME280;8798;51.938;4.348;2023-08-21T03:15:12;101778.50;;;19.82;66.53
17362;BME280;8798;51.938;4.348;2023-08-21T03:17:40;101772.53;;;19.78;66.60
17362;BME280;8798;51.938;4.348;2023-08-21T03:20:08;101755.75;;;19.74;66.68
17362;BME280;8798;51.938;4.348;2023-08-21T03:22:37;101757.81;;;19.72;66.68
17362;BME280;8798;51.938;4.348;2023-08-21T03:25:07;101752.75;;;19.69;66.76
17362;BME280;8798;51.938;4.348;2023-08-21T03:27:35;101748.47;;;19.67;66.66
17362;BME280;8798;51.938;4.348;2023-08-21T03:30:06;101744.44;;;19.63;66.61
17362;BME280;8798;51.938;4.348;2023-08-21T03:32:36;101741.03;;;19.61;66.73
17362;BME280;8798;51.938;4.348;2023-08-21T03:35:05;101741.25;;;19.59;67.02
17362;BME280;8798;51.938;4.348;2023-08-21T03:37:33;101732.78;;;19.54;66.72
17362;BME280;8798;51.938;4.348;2023-08-21T03:40:04;101739.47;;;19.51;66.88
17362;BME280;8798;51.938;4.348;2023-08-21T03:42:32;101735.25;;;19.49;66.90
17362;BME280;8798;51.938;4.348;2023-08-21T03:45:00;101727.25;;;19.47;67.14
17362;BME280;8798;51.938;4.348;2023-08-21T03:47:30;101732.25;;;19.44;67.17
17362;BME280;8798;51.938;4.348;2023-08-21T03:49:58;101720.00;;;19.40;67.11
17362;BME280;8798;51.938;4.348;2023-08-21T03:52:27;101707.63;;;19.37;67.12
17362;BME280;8798;51.938;4.348;2023-08-21T03:54:55;101714.28;;;19.34;67.07
17362;BME280;8798;51.938;4.348;2023-08-21T03:57:24;101706.50;;;19.31;67.35
17362;BME280;8798;51.938;4.348;2023-08-21T03:59:52;101709.41;;;19.30;67.21
17362;BME280;8798;51.938;4.348;2023-08-21T04:02:20;101711.47;;;19.28;67.39
17362;BME280;8798;51.938;4.348;2023-08-21T04:04:51;101717.94;;;19.27;67.54
17362;BME280;8798;51.938;4.348;2023-08-21T04:07:19;101730.75;;;19.26;67.54
17362;BME280;8798;51.938;4.348;2023-08-21T04:09:47;101727.34;;;19.24;67.44
17362;BME280;8798;51.938;4.348;2023-08-21T04:12:15;101734.69;;;19.24;67.40
17362;BME280;8798;51.938;4.348;2023-08-21T04:14:44;101732.13;;;19.22;67.62
17362;BME280;8798;51.938;4.348;2023-08-21T04:17:12;101743.03;;;19.22;67.84
17362;BME280;8798;51.938;4.348;2023-08-21T04:19:41;101750.38;;;19.22;67.84
17362;BME280;8798;51.938;4.348;2023-08-21T04:22:10;101763.13;;;19.21;67.81
17362;BME280;8798;51.938;4.348;2023-08-21T04:24:38;101756.16;;;19.19;68.10
17362;BME280;8798;51.938;4.348;2023-08-21T04:27:06;101761.59;;;19.19;68.11
17362;BME280;8798;51.938;4.348;2023-08-21T04:29:35;101769.78;;;19.19;67.93
17362;BME280;8798;51.938;4.348;2023-08-21T04:32:05;101764.72;;;19.16;67.90
17362;BME280;8798;51.938;4.348;2023-08-21T04:34:35;101768.47;;;19.15;68.25
17362;BME280;8798;51.938;4.348;2023-08-21T04:37:03;101781.25;;;19.14;68.34
17362;BME280;8798;51.938;4.348;2023-08-21T04:39:31;101789.22;;;19.16;68.09
17362;BME280;8798;51.938;4.348;2023-08-21T04:41:59;101806.41;;;19.16;68.37
17362;BME280;8798;51.938;4.348;2023-08-21T04:44:27;101811.03;;;19.16;68.43
17362;BME280;8798;51.938;4.348;2023-08-21T04:46:55;101828.22;;;19.16;68.23
17362;BME280;8798;51.938;4.348;2023-08-21T04:49:24;101838.09;;;19.17;68.27
17362;BME280;8798;51.938;4.348;2023-08-21T04:51:52;101839.97;;;19.17;68.65
17362;BME280;8798;51.938;4.348;2023-08-21T04:54:20;101847.09;;;19.18;68.27
17362;BME280;8798;51.938;4.348;2023-08-21T04:56:49;101861.78;;;19.17;68.85
17362;BME280;8798;51.938;4.348;2023-08-21T04:59:17;101875.19;;;19.18;68.72
17362;BME280;8798;51.938;4.348;2023-08-21T05:01:44;101878.75;;;19.19;68.89
17362;BME280;8798;51.938;4.348;2023-08-21T05:04:12;101887.81;;;19.19;68.69
17362;BME280;8798;51.938;4.348;2023-08-21T05:06:42;101910.91;;;19.23;68.74
17362;BME280;8798;51.938;4.348;2023-08-21T05:09:10;101922.69;;;19.24;68.78
17362;BME280;8798;51.938;4.348;2023-08-21T05:11:38;101933.56;;;19.24;68.93
17362;BME280;8798;51.938;4.348;2023-08-21T05:14:06;101943.44;;;19.25;69.15
17362;BME280;8798;51.938;4.348;2023-08-21T05:16:34;101954.16;;;19.26;69.12
17362;BME280;8798;51.938;4.348;2023-08-21T05:19:02;101955.84;;;19.27;69.00
17362;BME280;8798;51.938;4.348;2023-08-21T05:21:32;101972.19;;;19.27;68.99
17362;BME280;8798;51.938;4.348;2023-08-21T05:24:01;101982.91;;;19.29;69.04
17362;BME280;8798;51.938;4.348;2023-08-21T05:26:29;101987.31;;;19.30;69.31
17362;BME280;8798;51.938;4.348;2023-08-21T05:28:57;102004.34;;;19.32;69.26
17362;BME280;8798;51.938;4.348;2023-08-21T05:31:25;102014.22;;;19.33;69.23
17362;BME280;8798;51.938;4.348;2023-08-21T05:33:55;102030.41;;;19.34;69.29
17362;BME280;8798;51.938;4.348;2023-08-21T05:36:23;102048.25;;;19.37;69.24
17362;BME280;8798;51.938;4.348;2023-08-21T05:38:52;102051.66;;;19.39;69.24
17362;BME280;8798;51.938;4.348;2023-08-21T05:41:21;102062.34;;;19.41;69.38
17362;BME280;8798;51.938;4.348;2023-08-21T05:43:49;102082.78;;;19.45;69.45
17362;BME280;8798;51.938;4.348;2023-08-21T05:46:17;102107.78;;;19.48;69.35
17362;BME280;8798;51.938;4.348;2023-08-21T05:48:45;102117.31;;;19.52;69.47
17362;BME280;8798;51.938;4.348;2023-08-21T05:51:13;102145.94;;;19.57;69.38
17362;BME280;8798;51.938;4.348;2023-08-21T05:53:41;102170.94;;;19.60;69.50
17362;BME280;8798;51.938;4.348;2023-08-21T05:56:09;102185.94;;;19.64;69.58
17362;BME280;8798;51.938;4.348;2023-08-21T05:58:38;102207.03;;;19.70;69.79
17362;BME280;8798;51.938;4.348;2023-08-21T06:01:06;102229.38;;;19.74;69.69
17362;BME280;8798;51.938;4.348;2023-08-21T06:03:35;102250.66;;;19.79;70.01
17362;BME280;8798;51.938;4.348;2023-08-21T06:06:03;102275.53;;;19.84;70.04
17362;BME280;8798;51.938;4.348;2023-08-21T06:08:31;102296.81;;;19.88;70.12
17362;BME280;8798;51.938;4.348;2023-08-21T06:10:59;102319.97;;;19.92;70.25
17362;BME280;8798;51.938;4.348;2023-08-21T06:13:27;102342.97;;;19.98;70.21
17362;BME280;8798;51.938;4.348;2023-08-21T06:15:57;102364.25;;;20.03;70.45
17362;BME280;8798;51.938;4.348;2023-08-21T06:18:25;102380.09;;;20.07;70.44
17362;BME280;8798;51.938;4.348;2023-08-21T06:20:54;102399.72;;;20.11;70.62
17362;BME280;8798;51.938;4.348;2023-08-21T06:23:22;102417.41;;;20.15;70.70
17362;BME280;8798;51.938;4.348;2023-08-21T06:25:50;102438.72;;;20.19;70.80
17362;BME280;8798;51.938;4.348;2023-08-21T06:28:18;102456.28;;;20.25;70.92
17362;BME280;8798;51.938;4.348;2023-08-21T06:30:46;102480.31;;;20.30;71.03
17362;BME280;8798;51.938;4.348;2023-08-21T06:33:16;102495.31;;;20.34;71.27
17362;BME280;8798;51.938;4.348;2023-08-21T06:35:44;102515.78;;;20.38;71.46
17362;BME280;8798;51.938;4.348;2023-08-21T06:38:12;102540.69;;;20.43;71.47
17362;BME280;8798;51.938;4.348;2023-08-21T06:40:40;102555.66;;;20.47;71.54
17362;BME280;8798;51.938;4.348;2023-08-21T06:43:08;102569.63;;;20.52;71.59
17362;BME280;8798;51.938;4.348;2023-08-21T06:45:36;102584.69;;;20.56;71.87
17362;BME280;8798;51.938;4.348;2023-08-21T06:48:04;102598.66;;;20.61;71.81
17362;BME280;8798;51.938;4.348;2023-08-21T06:50:33;102616.41;;;20.66;71.77
17362;BME280;8798;51.938;4.348;2023-08-21T06:53:02;102633.13;;;20.71;72.23
17362;BME280;8798;51.938;4.348;2023-08-21T06:55:30;102654.47;;;20.75;71.83
17362;BME280;8798;51.938;4.348;2023-08-21T06:57:58;102664.88;;;20.80;71.91
17362;BME280;8798;51.938;4.348;2023-08-21T07:00:26;102672.72;;;20.83;72.36
17362;BME280;8798;51.938;4.348;2023-08-21T07:02:54;102693.00;;;20.89;72.18
17362;BME280;8798;51.938;4.348;2023-08-21T07:05:22;102700.84;;;20.92;72.39
17362;BME280;8798;51.938;4.348;2023-08-21T07:07:51;102714.19;;;20.95;72.37
17362;BME280;8798;51.938;4.348;2023-08-21T07:10:20;102726.47;;;20.99;72.02
17362;BME280;8798;51.938;4.348;2023-08-21T07:12:48;102742.19;;;21.05;72.25
17362;BME280;8798;51.938;4.348;2023-08-21T07:15:16;102765.22;;;21.11;72.44
17362;BME280;8798;51.938;4.348;2023-08-21T07:17:44;102775.63;;;21.15;72.42
17362;BME280;8798;51.938;4.348;2023-08-21T07:20:12;102795.94;;;21.21;72.74
17362;BME280;8798;51.938;4.348;2023-08-21T07:22:40;102802.78;;;21.25;72.62
17362;BME280;8798;51.938;4.348;2023-08-21T07:25:09;102815.94;;;21.30;72.55
17362;BME280;8798;51.938;4.348;2023-08-21T07:27:37;102827.19;;;21.35;72.64
17362;BME280;8798;51.938;4.348;2023-08-21T07:30:07;102835.91;;;21.38;72.84
17362;BME280;8798;51.938;4.348;2023-08-21T07:32:35;102842.94;;;21.41;72.47
17362;BME280;8798;51.938;4.348;2023-08-21T07:35:04;102849.09;;;21.43;72.59
17362;BME280;8798;51.938;4.348;2023-08-21T07:37:32;102851.28;;;21.47;72.88
17362;BME280;8798;51.938;4.348;2023-08-21T07:40:00;102866.16;;;21.53;72.63
17362;BME280;8798;51.938;4.348;2023-08-21T07:42:30;102890.09;;;21.59;72.65
17362;BME280;8798;51.938;4.348;2023-08-21T07:44:58;102910.25;;;21.66;72.80
17362;BME280;8798;51.938;4.348;2023-08-21T07:47:26;102932.09;;;21.75;72.58
17362;BME280;8798;51.938;4.348;2023-08-21T07:49:55;102973.97;;;21.83;72.54
17362;BME280;8798;51.938;4.348;2023-08-21T07:52:23;102990.41;;;21.92;72.85
17362;BME280;8798;51.938;4.348;2023-08-21T07:54:52;103021.53;;;21.99;72.82
17362;BME280;8798;51.938;4.348;2023-08-21T07:57:20;103046.16;;;22.07;72.36
17362;BME280;8798;51.938;4.348;2023-08-21T07:59:50;103067.00;;;22.16;72.39
17362;BME280;8798;51.938;4.348;2023-08-21T08:02:21;103096.09;;;22.25;72.28
17362;BME280;8798;51.938;4.348;2023-08-21T08:04:49;103114.59;;;22.31;72.57
17362;BME280;8798;51.938;4.348;2023-08-21T08:07:17;103148.28;;;22.40;72.67
17362;BME280;8798;51.938;4.348;2023-08-21T08:09:45;103174.66;;;22.49;72.50
17362;BME280;8798;51.938;4.348;2023-08-21T08:12:17;103215.91;;;22.64;72.50
17362;BME280;8798;51.938;4.348;2023-08-21T08:14:45;103309.06;;;22.89;72.35
17362;BME280;8798;51.938;4.348;2023-08-21T08:17:14;103490.59;;;23.33;72.12
17362;BME280;8798;51.938;4.348;2023-08-21T08:19:42;103791.50;;;24.01;72.10
17362;BME280;8798;51.938;4.348;2023-08-21T08:22:10;104189.38;;;24.93;72.03
17362;BME280;8798;51.938;4.348;2023-08-21T08:24:38;104616.59;;;25.92;71.67
17362;BME280;8798;51.938;4.348;2023-08-21T08:27:06;105065.53;;;26.96;71.13
17362;BME280;8798;51.938;4.348;2023-08-21T08:29:34;105406.22;;;27.78;70.48
17362;BME280;8798;51.938;4.348;2023-08-21T08:32:02;105711.03;;;28.57;70.11
17362;BME280;8798;51.938;4.348;2023-08-21T08:34:32;105990.03;;;29.29;69.47
17362;BME280;8798;51.938;4.348;2023-08-21T08:37:00;106241.19;;;29.98;69.30
17362;BME280;8798;51.938;4.348;2023-08-21T08:39:28;106394.63;;;30.48;68.26
17362;BME280;8798;51.938;4.348;2023-08-21T08:41:58;106588.72;;;31.09;67.18
17362;BME280;8798;51.938;4.348;2023-08-21T08:44:27;106875.88;;;31.89;66.43
17362;BME280;8798;51.938;4.348;2023-08-21T08:46:56;107182.88;;;32.70;65.58
17362;BME280;8798;51.938;4.348;2023-08-21T08:49:24;107375.94;;;33.32;64.52
17362;BME280;8798;51.938;4.348;2023-08-21T08:51:54;107545.22;;;33.92;64.09
17362;BME280;8798;51.938;4.348;2023-08-21T08:54:22;107729.28;;;34.55;62.92
17362;BME280;8798;51.938;4.348;2023-08-21T08:56:52;107717.38;;;34.82;62.10
17362;BME280;8798;51.938;4.348;2023-08-21T08:59:20;107798.78;;;35.27;61.05
17362;BME280;8798;51.938;4.348;2023-08-21T09:01:49;107835.56;;;35.62;60.24
17362;BME280;8798;51.938;4.348;2023-08-21T09:04:16;107896.75;;;36.04;58.85
17362;BME280;8798;51.938;4.348;2023-08-21T09:06:45;107980.97;;;36.49;58.44
17362;BME280;8798;51.938;4.348;2023-08-21T09:09:14;107911.09;;;36.66;56.70
17362;BME280;8798;51.938;4.348;2023-08-21T09:11:43;107989.88;;;37.10;55.85
17362;BME280;8798;51.938;4.348;2023-08-21T09:14:11;108154.69;;;37.73;55.58
17362;BME280;8798;51.938;4.348;2023-08-21T09:16:58;108302.81;;;38.36;54.33
17362;BME280;8798;51.938;4.348;2023-08-21T09:19:27;108358.13;;;38.81;53.71
17362;BME280;8798;51.938;4.348;2023-08-21T09:21:54;108351.91;;;39.13;52.17
17362;BME280;8798;51.938;4.348;2023-08-21T09:24:24;108137.09;;;39.03;51.77
17362;BME280;8798;51.938;4.348;2023-08-21T09:26:52;108068.50;;;39.20;51.03
17362;BME280;8798;51.938;4.348;2023-08-21T09:29:20;108130.25;;;39.64;49.96
17362;BME280;8798;51.938;4.348;2023-08-21T09:31:48;107963.94;;;39.64;48.69
17362;BME280;8798;51.938;4.348;2023-08-21T09:34:16;107786.91;;;39.60;48.42
17362;BME280;8798;51.938;4.348;2023-08-21T09:36:54;107616.91;;;39.59;47.35
17362;BME280;8798;51.938;4.348;2023-08-21T09:39:23;107724.81;;;40.07;46.48
17362;BME280;8798;51.938;4.348;2023-08-21T09:41:55;107066.03;;;39.04;46.37
17362;BME280;8798;51.938;4.348;2023-08-21T09:44:24;106453.59;;;38.03;45.33
17362;BME280;8798;51.938;4.348;2023-08-21T09:46:53;105735.31;;;36.74;45.33
17362;BME280;8798;51.938;4.348;2023-08-21T09:49:22;105849.41;;;37.15;44.90
17362;BME280;8798;51.938;4.348;2023-08-21T09:51:50;106116.03;;;37.92;43.85
17362;BME280;8798;51.938;4.348;2023-08-21T09:54:20;106439.84;;;38.78;43.38
17362;BME280;8798;51.938;4.348;2023-08-21T09:56:50;106760.13;;;39.67;43.21
17362;BME280;8798;51.938;4.348;2023-08-21T09:59:19;106976.59;;;40.35;42.86
17362;BME280;8798;51.938;4.348;2023-08-21T10:01:49;106951.56;;;40.53;41.94
17362;BME280;8798;51.938;4.348;2023-08-21T10:04:19;107055.84;;;41.03;41.45
17362;BME280;8798;51.938;4.348;2023-08-21T10:06:52;107157.75;;;41.50;40.83
17362;BME280;8798;51.938;4.348;2023-08-21T10:09:23;107180.06;;;41.79;40.40
17362;BME280;8798;51.938;4.348;2023-08-21T10:11:53;107263.34;;;42.25;39.80
17362;BME280;8798;51.938;4.348;2023-08-21T10:14:22;107296.31;;;42.59;38.70
17362;BME280;8798;51.938;4.348;2023-08-21T10:16:51;107357.81;;;42.99;39.08
17362;BME280;8798;51.938;4.348;2023-08-21T10:19:20;107398.16;;;43.34;37.94
17362;BME280;8798;51.938;4.348;2023-08-21T10:21:49;107433.72;;;43.70;38.03
17362;BME280;8798;51.938;4.348;2023-08-21T10:24:26;107251.13;;;43.64;36.86
17362;BME280;8798;51.938;4.348;2023-08-21T10:26:59;107040.69;;;43.49;36.77
17362;BME280;8798;51.938;4.348;2023-08-21T10:29:27;107010.50;;;43.68;36.29
17362;BME280;8798;51.938;4.348;2023-08-21T10:32:02;106878.94;;;43.69;36.14
17362;BME280;8798;51.938;4.348;2023-08-21T10:34:35;106828.34;;;43.84;35.17
17362;BME280;8798;51.938;4.348;2023-08-21T10:37:06;106875.97;;;44.19;35.25
17362;BME280;8798;51.938;4.348;2023-08-21T10:39:37;106833.59;;;44.36;34.48
17362;BME280;8798;51.938;4.348;2023-08-21T10:42:09;106763.56;;;44.48;34.03
17362;BME280;8798;51.938;4.348;2023-08-21T10:44:52;106735.47;;;44.70;33.79
17362;BME280;8798;51.938;4.348;2023-08-21T10:47:23;106753.56;;;44.99;33.01
17362;BME280;8798;51.938;4.348;2023-08-21T10:50:00;106806.47;;;45.36;32.67
17362;BME280;8798;51.938;4.348;2023-08-21T10:52:29;106745.34;;;45.50;32.75
17362;BME280;8798;51.938;4.348;2023-08-21T10:54:59;106429.19;;;45.07;31.57
17362;BME280;8798;51.938;4.348;2023-08-21T10:57:30;106131.06;;;44.67;31.41
17362;BME280;8798;51.938;4.348;2023-08-21T10:59:59;106089.44;;;44.78;31.15
17362;BME280;8798;51.938;4.348;2023-08-21T11:02:28;106116.91;;;45.06;31.00
17362;BME280;8798;51.938;4.348;2023-08-21T11:04:57;105890.66;;;44.78;30.58
17362;BME280;8798;51.938;4.348;2023-08-21T11:07:26;105706.72;;;44.58;31.01
17362;BME280;8798;51.938;4.348;2023-08-21T11:09:55;105568.66;;;44.47;30.30
17362;BME280;8798;51.938;4.348;2023-08-21T11:12:24;105531.84;;;44.57;29.69
17362;BME280;8798;51.938;4.348;2023-08-21T11:14:54;105446.09;;;44.55;29.64
17362;BME280;8798;51.938;4.348;2023-08-21T11:17:22;105443.34;;;44.70;28.98
17362;BME280;8798;51.938;4.348;2023-08-21T11:19:50;105561.47;;;45.14;29.25
17362;BME280;8798;51.938;4.348;2023-08-21T11:22:18;105595.44;;;45.36;28.75
17362;BME280;8798;51.938;4.348;2023-08-21T11:24:48;105476.03;;;45.31;28.32
17362;BME280;8798;51.938;4.348;2023-08-21T11:27:18;105411.53;;;45.31;28.67
17362;BME280;8798;51.938;4.348;2023-08-21T11:29:51;105399.91;;;45.48;28.21
17362;BME280;8798;51.938;4.348;2023-08-21T11:32:22;105438.31;;;45.71;28.12
17362;BME280;8798;51.938;4.348;2023-08-21T11:34:52;105294.16;;;45.56;27.76
17362;BME280;8798;51.938;4.348;2023-08-21T11:37:21;105229.63;;;45.57;27.41
17362;BME280;8798;51.938;4.348;2023-08-21T11:39:52;105256.56;;;45.80;27.52
17362;BME280;8798;51.938;4.348;2023-08-21T11:42:21;105220.44;;;45.85;27.30
17362;BME280;8798;51.938;4.348;2023-08-21T11:44:51;105244.84;;;46.07;27.21
17362;BME280;8798;51.938;4.348;2023-08-21T11:47:23;105373.63;;;46.53;26.98
17362;BME280;8798;51.938;4.348;2023-08-21T11:49:51;105508.47;;;46.98;26.33
17362;BME280;8798;51.938;4.348;2023-08-21T11:52:21;105395.69;;;46.92;26.83
17362;BME280;8798;51.938;4.348;2023-08-21T11:54:50;105222.31;;;46.70;26.60
17362;BME280;8798;51.938;4.348;2023-08-21T11:57:18;105209.13;;;46.85;25.83
17362;BME280;8798;51.938;4.348;2023-08-21T11:59:50;105189.09;;;46.95;26.22
17362;BME280;8798;51.938;4.348;2023-08-21T12:02:24;105180.75;;;47.09;25.89
17362;BME280;8798;51.938;4.348;2023-08-21T12:04:53;105126.56;;;47.14;25.33
17362;BME280;8798;51.938;4.348;2023-08-21T12:07:22;105041.13;;;47.09;25.29
17362;BME280;8798;51.938;4.348;2023-08-21T12:09:50;105005.41;;;47.16;25.35
17362;BME280;8798;51.938;4.348;2023-08-21T12:12:18;104750.69;;;46.74;24.63
17362;BME280;8798;51.938;4.348;2023-08-21T12:14:46;104587.59;;;46.50;24.75
17362;BME280;8798;51.938;4.348;2023-08-21T12:17:14;104497.19;;;46.42;24.48
17362;BME280;8798;51.938;4.348;2023-08-21T12:19:43;104556.00;;;46.65;24.66
17362;BME280;8798;51.938;4.348;2023-08-21T12:22:11;104731.81;;;47.16;24.04
17362;BME280;8798;51.938;4.348;2023-08-21T12:24:39;104738.38;;;47.31;24.10
17362;BME280;8798;51.938;4.348;2023-08-21T12:27:09;104637.66;;;47.22;23.74
17362;BME280;8798;51.938;4.348;2023-08-21T12:29:37;104493.84;;;47.00;24.45
17362;BME280;8798;51.938;4.348;2023-08-21T12:32:05;104395.50;;;46.89;24.34
17362;BME280;8798;51.938;4.348;2023-08-21T12:34:33;104225.00;;;46.60;23.94
17362;BME280;8798;51.938;4.348;2023-08-21T12:37:03;104250.63;;;46.73;23.89
17362;BME280;8798;51.938;4.348;2023-08-21T12:39:31;104194.84;;;46.72;23.33
17362;BME280;8798;51.938;4.348;2023-08-21T12:41:59;104158.66;;;46.73;23.87
17362;BME280;8798;51.938;4.348;2023-08-21T12:44:34;103997.31;;;46.46;23.78
17362;BME280;8798;51.938;4.348;2023-08-21T12:47:02;103776.22;;;46.01;23.03
17362;BME280;8798;51.938;4.348;2023-08-21T12:49:30;103544.66;;;45.54;23.29
17362;BME280;8798;51.938;4.348;2023-08-21T12:51:58;103227.13;;;44.84;23.23
17362;BME280;8798;51.938;4.348;2023-08-21T12:54:27;102700.63;;;43.62;23.32
17362;BME280;8798;51.938;4.348;2023-08-21T12:56:55;102048.69;;;41.99;23.68
17362;BME280;8798;51.938;4.348;2023-08-21T12:59:23;101475.66;;;40.50;23.76
17362;BME280;8798;51.938;4.348;2023-08-21T13:01:51;100993.94;;;39.21;23.80
17362;BME280;8798;51.938;4.348;2023-08-21T13:04:19;100705.31;;;38.37;24.24
17362;BME280;8798;51.938;4.348;2023-08-21T13:06:47;100443.06;;;37.59;24.17
17362;BME280;8798;51.938;4.348;2023-08-21T13:09:15;100196.31;;;36.80;24.33